sensor_id;sensor_type;location;lat;lon;timestamp;P1;durP1;ratioP1;P2;durP2;ratioP2
73296;SDS011;61524;50.938;11.396;2023-06-14T00:02:11;10.02;;;4.47;;
73296;SDS011;61524;50.938;11.396;2023-06-14T00:04:36;6.35;;;3.58;;
73296;SDS011;61524;50.938;11.396;2023-06-14T00:07:04;8.82;;;3.33;;
73296;SDS011;61524;50.938;11.396;2023-06-14T00:09:33;5.95;;;3.15;;
73296;SDS011;61524;50.938;11.396;2023-06-14T00:11:58;6.60;;;4.63;;
73296;SDS011;61524;50.938;11.396;2023-06-14T00:14:24;5.15;;;4.07;;
73296;SDS011;61524;50.938;11.396;2023-06-14T00:16:49;6.85;;;4.75;;
73296;SDS011;61524;50.938;11.396;2023-06-14T00:19:17;8.10;;;4.93;;
73296;SDS011;61524;50.938;11.396;2023-06-14T00:21:43;6.97;;;4.45;;
73296;SDS011;61524;50.938;11.396;2023-06-14T00:24:08;6.05;;;3.63;;
73296;SDS011;61524;50.938;11.396;2023-06-14T00:26:34;7.38;;;4.57;;
73296;SDS011;61524;50.938;11.396;2023-06-14T00:28:59;8.02;;;4.13;;
73296;SDS011;61524;50.938;11.396;2023-06-14T00:31:25;6.38;;;4.57;;
73296;SDS011;61524;50.938;11.396;2023-06-14T00:33:50;6.05;;;4.43;;
73296;SDS011;61524;50.938;11.396;2023-06-14T00:36:16;8.63;;;4.40;;
73296;SDS011;61524;50.938;11.396;2023-06-14T00:38:41;7.68;;;4.85;;
73296;SDS011;61524;50.938;11.396;2023-06-14T00:41:07;5.60;;;3.75;;
73296;SDS011;61524;50.938;11.396;2023-06-14T00:43:32;6.30;;;4.30;;
73296;SDS011;61524;50.938;11.396;2023-06-14T00:45:59;7.95;;;4.45;;
73296;SDS011;61524;50.938;11.396;2023-06-14T00:48:25;7.32;;;3.75;;
73296;SDS011;61524;50.938;11.396;2023-06-14T00:50:50;6.90;;;3.60;;
73296;SDS011;61524;50.938;11.396;2023-06-14T00:53:17;8.18;;;4.55;;
73296;SDS011;61524;50.938;11.396;2023-06-14T00:55:44;6.55;;;4.13;;
73296;SDS011;61524;50.938;11.396;2023-06-14T00:58:09;7.15;;;3.83;;
73296;SDS011;61524;50.938;11.396;2023-06-14T01:00:36;8.57;;;4.90;;
73296;SDS011;61524;50.938;11.396;2023-06-14T01:03:01;6.55;;;4.03;;
73296;SDS011;61524;50.938;11.396;2023-06-14T01:05:28;8.82;;;4.25;;
73296;SDS011;61524;50.938;11.396;2023-06-14T01:11:05;6.20;;;5.13;;
73296;SDS011;61524;50.938;11.396;2023-06-14T01:13:40;6.82;;;4.20;;
73296;SDS011;61524;50.938;11.396;2023-06-14T01:16:10;5.72;;;3.97;;
73296;SDS011;61524;50.938;11.396;2023-06-14T01:18:37;8.13;;;4.35;;
73296;SDS011;61524;50.938;11.396;2023-06-14T01:21:03;6.75;;;3.63;;
73296;SDS011;61524;50.938;11.396;2023-06-14T01:23:31;7.15;;;4.78;;
73296;SDS011;61524;50.938;11.396;2023-06-14T01:25:58;6.20;;;4.32;;
73296;SDS011;61524;50.938;11.396;2023-06-14T01:28:25;5.63;;;3.80;;
73296;SDS011;61524;50.938;11.396;2023-06-14T01:30:54;6.38;;;3.85;;
73296;SDS011;61524;50.938;11.396;2023-06-14T01:33:21;7.18;;;4.85;;
73296;SDS011;61524;50.938;11.396;2023-06-14T01:35:50;5.47;;;3.67;;
73296;SDS011;61524;50.938;11.396;2023-06-14T01:38:20;6.22;;;4.68;;
73296;SDS011;61524;50.938;11.396;2023-06-14T01:40:48;8.63;;;4.43;;
73296;SDS011;61524;50.938;11.396;2023-06-14T01:43:16;6.80;;;3.72;;
73296;SDS011;61524;50.938;11.396;2023-06-14T01:45:42;7.15;;;4.20;;
73296;SDS011;61524;50.938;11.396;2023-06-14T01:48:09;5.95;;;4.53;;
73296;SDS011;61524;50.938;11.396;2023-06-14T01:50:35;6.35;;;3.72;;
73296;SDS011;61524;50.938;11.396;2023-06-14T01:53:00;7.25;;;4.90;;
73296;SDS011;61524;50.938;11.396;2023-06-14T01:55:26;6.95;;;4.13;;
73296;SDS011;61524;50.938;11.396;2023-06-14T01:57:52;7.13;;;3.88;;
73296;SDS011;61524;50.938;11.396;2023-06-14T02:07:01;7.35;;;4.03;;
73296;SDS011;61524;50.938;11.396;2023-06-14T02:09:26;7.10;;;4.85;;
73296;SDS011;61524;50.938;11.396;2023-06-14T02:11:52;12.32;;;4.75;;
73296;SDS011;61524;50.938;11.396;2023-06-14T02:14:17;7.68;;;4.65;;
73296;SDS011;61524;50.938;11.396;2023-06-14T02:16:43;6.90;;;4.22;;
73296;SDS011;61524;50.938;11.396;2023-06-14T02:19:17;7.15;;;5.10;;
73296;SDS011;61524;50.938;11.396;2023-06-14T02:21:43;9.15;;;4.20;;
73296;SDS011;61524;50.938;11.396;2023-06-14T02:24:09;9.70;;;4.45;;
73296;SDS011;61524;50.938;11.396;2023-06-14T02:26:35;6.82;;;4.60;;
73296;SDS011;61524;50.938;11.396;2023-06-14T02:29:02;8.05;;;5.30;;
73296;SDS011;61524;50.938;11.396;2023-06-14T02:31:28;7.18;;;4.28;;
73296;SDS011;61524;50.938;11.396;2023-06-14T02:33:54;10.68;;;4.88;;
73296;SDS011;61524;50.938;11.396;2023-06-14T02:36:19;7.18;;;4.55;;
73296;SDS011;61524;50.938;11.396;2023-06-14T02:38:45;7.65;;;4.35;;
73296;SDS011;61524;50.938;11.396;2023-06-14T02:41:11;6.90;;;4.05;;
73296;SDS011;61524;50.938;11.396;2023-06-14T02:43:37;6.43;;;4.20;;
73296;SDS011;61524;50.938;11.396;2023-06-14T02:46:03;5.90;;;3.85;;
73296;SDS011;61524;50.938;11.396;2023-06-14T02:48:29;8.05;;;4.55;;
73296;SDS011;61524;50.938;11.396;2023-06-14T02:50:55;7.75;;;4.55;;
73296;SDS011;61524;50.938;11.396;2023-06-14T02:53:21;7.10;;;4.28;;
73296;SDS011;61524;50.938;11.396;2023-06-14T02:55:46;7.97;;;4.20;;
73296;SDS011;61524;50.938;11.396;2023-06-14T02:58:13;6.07;;;3.95;;
73296;SDS011;61524;50.938;11.396;2023-06-14T03:00:39;7.82;;;4.93;;
73296;SDS011;61524;50.938;11.396;2023-06-14T03:03:06;8.75;;;4.75;;
73296;SDS011;61524;50.938;11.396;2023-06-14T03:05:38;6.97;;;3.90;;
73296;SDS011;61524;50.938;11.396;2023-06-14T03:08:11;7.28;;;4.75;;
73296;SDS011;61524;50.938;11.396;2023-06-14T03:10:42;6.65;;;4.25;;
73296;SDS011;61524;50.938;11.396;2023-06-14T03:13:08;7.63;;;5.18;;
73296;SDS011;61524;50.938;11.396;2023-06-14T03:15:33;9.70;;;5.00;;
73296;SDS011;61524;50.938;11.396;2023-06-14T03:18:00;7.13;;;4.00;;
73296;SDS011;61524;50.938;11.396;2023-06-14T03:20:25;6.35;;;4.15;;
73296;SDS011;61524;50.938;11.396;2023-06-14T03:22:54;7.57;;;4.97;;
73296;SDS011;61524;50.938;11.396;2023-06-14T03:25:19;8.75;;;4.45;;
73296;SDS011;61524;50.938;11.396;2023-06-14T03:27:46;7.25;;;4.35;;
73296;SDS011;61524;50.938;11.396;2023-06-14T03:30:12;8.73;;;4.68;;
73296;SDS011;61524;50.938;11.396;2023-06-14T03:32:38;6.82;;;4.38;;
73296;SDS011;61524;50.938;11.396;2023-06-14T03:35:04;6.15;;;4.50;;
73296;SDS011;61524;50.938;11.396;2023-06-14T03:37:30;8.55;;;5.15;;
73296;SDS011;61524;50.938;11.396;2023-06-14T03:39:55;10.02;;;4.82;;
73296;SDS011;61524;50.938;11.396;2023-06-14T03:42:21;7.10;;;4.38;;
73296;SDS011;61524;50.938;11.396;2023-06-14T03:44:46;6.82;;;4.22;;
73296;SDS011;61524;50.938;11.396;2023-06-14T03:47:11;8.60;;;4.75;;
73296;SDS011;61524;50.938;11.396;2023-06-14T03:49:37;7.38;;;5.00;;
73296;SDS011;61524;50.938;11.396;2023-06-14T03:52:03;6.25;;;3.72;;
73296;SDS011;61524;50.938;11.396;2023-06-14T03:54:29;7.13;;;5.18;;
73296;SDS011;61524;50.938;11.396;2023-06-14T03:56:54;6.68;;;4.43;;
73296;SDS011;61524;50.938;11.396;2023-06-14T03:59:21;6.55;;;3.85;;
73296;SDS011;61524;50.938;11.396;2023-06-14T04:01:47;6.00;;;4.40;;
73296;SDS011;61524;50.938;11.396;2023-06-14T04:04:13;9.45;;;4.40;;
73296;SDS011;61524;50.938;11.396;2023-06-14T04:06:41;7.13;;;3.70;;
73296;SDS011;61524;50.938;11.396;2023-06-14T04:09:08;7.13;;;3.95;;
73296;SDS011;61524;50.938;11.396;2023-06-14T04:11:33;5.47;;;4.10;;
73296;SDS011;61524;50.938;11.396;2023-06-14T04:13:59;5.63;;;3.53;;
73296;SDS011;61524;50.938;11.396;2023-06-14T04:16:24;6.43;;;3.58;;
73296;SDS011;61524;50.938;11.396;2023-06-14T04:18:50;6.20;;;3.63;;
73296;SDS011;61524;50.938;11.396;2023-06-14T04:21:17;6.07;;;3.40;;
73296;SDS011;61524;50.938;11.396;2023-06-14T04:23:43;7.82;;;3.35;;
73296;SDS011;61524;50.938;11.396;2023-06-14T04:26:09;5.70;;;3.80;;
73296;SDS011;61524;50.938;11.396;2023-06-14T04:28:35;5.43;;;3.63;;
73296;SDS011;61524;50.938;11.396;2023-06-14T04:31:05;5.00;;;3.40;;
73296;SDS011;61524;50.938;11.396;2023-06-14T04:33:34;5.45;;;3.72;;
73296;SDS011;61524;50.938;11.396;2023-06-14T04:36:09;4.25;;;3.00;;
73296;SDS011;61524;50.938;11.396;2023-06-14T04:38:37;5.32;;;3.28;;
73296;SDS011;61524;50.938;11.396;2023-06-14T04:41:02;5.15;;;3.28;;
73296;SDS011;61524;50.938;11.396;2023-06-14T04:43:28;4.85;;;2.63;;
73296;SDS011;61524;50.938;11.396;2023-06-14T04:45:53;4.57;;;2.85;;
73296;SDS011;61524;50.938;11.396;2023-06-14T04:48:21;5.22;;;3.35;;
73296;SDS011;61524;50.938;11.396;2023-06-14T04:50:47;4.90;;;3.03;;
73296;SDS011;61524;50.938;11.396;2023-06-14T04:53:13;4.47;;;3.00;;
73296;SDS011;61524;50.938;11.396;2023-06-14T04:55:38;5.45;;;2.85;;
73296;SDS011;61524;50.938;11.396;2023-06-14T04:58:04;4.00;;;2.60;;
73296;SDS011;61524;50.938;11.396;2023-06-14T05:00:30;4.70;;;3.17;;
73296;SDS011;61524;50.938;11.396;2023-06-14T05:02:56;4.85;;;2.33;;
73296;SDS011;61524;50.938;11.396;2023-06-14T05:05:22;5.60;;;3.25;;
73296;SDS011;61524;50.938;11.396;2023-06-14T05:07:49;4.63;;;3.10;;
73296;SDS011;61524;50.938;11.396;2023-06-14T05:10:14;7.07;;;3.28;;
73296;SDS011;61524;50.938;11.396;2023-06-14T05:12:40;5.53;;;3.10;;
73296;SDS011;61524;50.938;11.396;2023-06-14T05:15:08;8.45;;;2.85;;
73296;SDS011;61524;50.938;11.396;2023-06-14T05:17:35;6.80;;;3.53;;
73296;SDS011;61524;50.938;11.396;2023-06-14T05:20:01;5.43;;;3.45;;
73296;SDS011;61524;50.938;11.396;2023-06-14T05:22:27;4.97;;;2.80;;
73296;SDS011;61524;50.938;11.396;2023-06-14T05:24:52;6.57;;;3.00;;
73296;SDS011;61524;50.938;11.396;2023-06-14T05:27:18;5.32;;;2.97;;
73296;SDS011;61524;50.938;11.396;2023-06-14T05:29:43;5.47;;;2.78;;
73296;SDS011;61524;50.938;11.396;2023-06-14T05:32:09;5.72;;;3.35;;
73296;SDS011;61524;50.938;11.396;2023-06-14T05:34:34;4.63;;;3.08;;
73296;SDS011;61524;50.938;11.396;2023-06-14T05:37:00;4.47;;;3.05;;
73296;SDS011;61524;50.938;11.396;2023-06-14T05:39:25;5.65;;;3.33;;
73296;SDS011;61524;50.938;11.396;2023-06-14T05:41:51;6.18;;;3.22;;
73296;SDS011;61524;50.938;11.396;2023-06-14T05:44:16;4.68;;;3.28;;
73296;SDS011;61524;50.938;11.396;2023-06-14T05:46:42;6.30;;;3.00;;
73296;SDS011;61524;50.938;11.396;2023-06-14T05:49:07;6.28;;;2.92;;
73296;SDS011;61524;50.938;11.396;2023-06-14T05:51:33;5.90;;;4.18;;
73296;SDS011;61524;50.938;11.396;2023-06-14T05:53:58;4.63;;;2.75;;
73296;SDS011;61524;50.938;11.396;2023-06-14T05:56:24;6.97;;;3.42;;
73296;SDS011;61524;50.938;11.396;2023-06-14T05:58:50;5.28;;;3.05;;
73296;SDS011;61524;50.938;11.396;2023-06-14T06:01:16;5.18;;;3.10;;
73296;SDS011;61524;50.938;11.396;2023-06-14T06:03:41;4.82;;;3.60;;
73296;SDS011;61524;50.938;11.396;2023-06-14T06:06:10;6.03;;;3.20;;
73296;SDS011;61524;50.938;11.396;2023-06-14T06:08:36;4.53;;;3.10;;
73296;SDS011;61524;50.938;11.396;2023-06-14T06:11:02;6.57;;;3.35;;
73296;SDS011;61524;50.938;11.396;2023-06-14T06:13:27;5.60;;;2.80;;
73296;SDS011;61524;50.938;11.396;2023-06-14T06:15:53;4.68;;;3.10;;
73296;SDS011;61524;50.938;11.396;2023-06-14T06:18:18;5.18;;;3.20;;
73296;SDS011;61524;50.938;11.396;2023-06-14T06:20:44;6.00;;;3.42;;
73296;SDS011;61524;50.938;11.396;2023-06-14T06:23:11;4.60;;;3.33;;
73296;SDS011;61524;50.938;11.396;2023-06-14T06:25:36;9.07;;;3.58;;
73296;SDS011;61524;50.938;11.396;2023-06-14T06:28:02;4.80;;;3.50;;
73296;SDS011;61524;50.938;11.396;2023-06-14T06:30:27;4.20;;;2.88;;
73296;SDS011;61524;50.938;11.396;2023-06-14T06:32:53;5.07;;;3.50;;
73296;SDS011;61524;50.938;11.396;2023-06-14T06:35:20;4.97;;;3.83;;
73296;SDS011;61524;50.938;11.396;2023-06-14T06:37:46;5.32;;;3.70;;
73296;SDS011;61524;50.938;11.396;2023-06-14T06:40:11;4.95;;;3.25;;
73296;SDS011;61524;50.938;11.396;2023-06-14T06:42:37;9.65;;;4.20;;
73296;SDS011;61524;50.938;11.396;2023-06-14T06:45:02;5.22;;;3.50;;
73296;SDS011;61524;50.938;11.396;2023-06-14T06:49:55;6.25;;;3.28;;
73296;SDS011;61524;50.938;11.396;2023-06-14T06:52:20;6.40;;;4.18;;
73296;SDS011;61524;50.938;11.396;2023-06-14T06:54:45;5.97;;;3.42;;
73296;SDS011;61524;50.938;11.396;2023-06-14T06:57:11;5.75;;;4.10;;
73296;SDS011;61524;50.938;11.396;2023-06-14T06:59:37;5.72;;;3.80;;
73296;SDS011;61524;50.938;11.396;2023-06-14T07:02:03;5.97;;;3.60;;
73296;SDS011;61524;50.938;11.396;2023-06-14T07:04:29;4.78;;;3.15;;
73296;SDS011;61524;50.938;11.396;2023-06-14T07:06:54;4.65;;;2.95;;
73296;SDS011;61524;50.938;11.396;2023-06-14T07:09:20;5.78;;;3.42;;
73296;SDS011;61524;50.938;11.396;2023-06-14T07:11:46;5.38;;;3.17;;
73296;SDS011;61524;50.938;11.396;2023-06-14T07:14:12;5.82;;;3.45;;
73296;SDS011;61524;50.938;11.396;2023-06-14T07:16:38;6.07;;;4.05;;
73296;SDS011;61524;50.938;11.396;2023-06-14T07:19:04;5.40;;;3.30;;
73296;SDS011;61524;50.938;11.396;2023-06-14T07:21:31;6.20;;;3.85;;
73296;SDS011;61524;50.938;11.396;2023-06-14T07:23:57;8.35;;;3.70;;
73296;SDS011;61524;50.938;11.396;2023-06-14T07:26:22;6.55;;;3.47;;
73296;SDS011;61524;50.938;11.396;2023-06-14T07:28:48;5.60;;;3.75;;
73296;SDS011;61524;50.938;11.396;2023-06-14T07:31:17;6.65;;;4.18;;
73296;SDS011;61524;50.938;11.396;2023-06-14T07:33:44;6.05;;;3.80;;
73296;SDS011;61524;50.938;11.396;2023-06-14T07:36:10;6.32;;;3.63;;
73296;SDS011;61524;50.938;11.396;2023-06-14T07:38:35;5.80;;;3.92;;
73296;SDS011;61524;50.938;11.396;2023-06-14T07:41:01;5.43;;;4.05;;
73296;SDS011;61524;50.938;11.396;2023-06-14T07:43:27;6.72;;;3.75;;
73296;SDS011;61524;50.938;11.396;2023-06-14T07:45:53;6.00;;;3.70;;
73296;SDS011;61524;50.938;11.396;2023-06-14T07:48:18;5.63;;;4.30;;
73296;SDS011;61524;50.938;11.396;2023-06-14T07:50:44;6.28;;;3.42;;
73296;SDS011;61524;50.938;11.396;2023-06-14T07:53:09;6.80;;;4.35;;
73296;SDS011;61524;50.938;11.396;2023-06-14T07:55:35;8.13;;;4.25;;
73296;SDS011;61524;50.938;11.396;2023-06-14T07:58:05;6.70;;;3.78;;
73296;SDS011;61524;50.938;11.396;2023-06-14T08:00:31;5.32;;;3.85;;
73296;SDS011;61524;50.938;11.396;2023-06-14T08:02:57;7.85;;;3.58;;
73296;SDS011;61524;50.938;11.396;2023-06-14T08:05:24;5.55;;;3.70;;
73296;SDS011;61524;50.938;11.396;2023-06-14T08:07:52;8.13;;;4.00;;
73296;SDS011;61524;50.938;11.396;2023-06-14T08:10:18;8.25;;;4.25;;
73296;SDS011;61524;50.938;11.396;2023-06-14T08:12:44;6.88;;;4.18;;
73296;SDS011;61524;50.938;11.396;2023-06-14T08:15:09;7.60;;;3.90;;
73296;SDS011;61524;50.938;11.396;2023-06-14T08:17:35;5.05;;;3.95;;
73296;SDS011;61524;50.938;11.396;2023-06-14T08:20:01;5.75;;;3.80;;
73296;SDS011;61524;50.938;11.396;2023-06-14T08:22:27;5.75;;;4.18;;
73296;SDS011;61524;50.938;11.396;2023-06-14T08:24:56;5.75;;;3.30;;
73296;SDS011;61524;50.938;11.396;2023-06-14T08:27:22;5.10;;;4.00;;
73296;SDS011;61524;50.938;11.396;2023-06-14T08:29:47;6.30;;;3.53;;
73296;SDS011;61524;50.938;11.396;2023-06-14T08:32:13;6.03;;;3.50;;
73296;SDS011;61524;50.938;11.396;2023-06-14T08:34:38;6.38;;;3.50;;
73296;SDS011;61524;50.938;11.396;2023-06-14T08:37:04;6.65;;;3.72;;
73296;SDS011;61524;50.938;11.396;2023-06-14T08:39:30;6.75;;;3.97;;
73296;SDS011;61524;50.938;11.396;2023-06-14T08:41:55;6.30;;;3.95;;
73296;SDS011;61524;50.938;11.396;2023-06-14T08:44:22;5.97;;;3.65;;
73296;SDS011;61524;50.938;11.396;2023-06-14T08:46:48;5.28;;;3.42;;
73296;SDS011;61524;50.938;11.396;2023-06-14T08:49:15;5.90;;;3.92;;
73296;SDS011;61524;50.938;11.396;2023-06-14T08:51:42;7.68;;;4.30;;
73296;SDS011;61524;50.938;11.396;2023-06-14T08:54:08;7.57;;;5.18;;
73296;SDS011;61524;50.938;11.396;2023-06-14T08:56:37;7.35;;;4.20;;
73296;SDS011;61524;50.938;11.396;2023-06-14T08:59:03;6.95;;;3.63;;
73296;SDS011;61524;50.938;11.396;2023-06-14T09:01:37;7.70;;;4.30;;
73296;SDS011;61524;50.938;11.396;2023-06-14T09:04:03;6.82;;;4.05;;
73296;SDS011;61524;50.938;11.396;2023-06-14T09:06:30;5.38;;;4.07;;
73296;SDS011;61524;50.938;11.396;2023-06-14T09:08:56;5.97;;;3.90;;
73296;SDS011;61524;50.938;11.396;2023-06-14T09:11:22;5.88;;;3.88;;
73296;SDS011;61524;50.938;11.396;2023-06-14T09:13:48;5.28;;;3.72;;
73296;SDS011;61524;50.938;11.396;2023-06-14T09:16:15;5.65;;;3.70;;
73296;SDS011;61524;50.938;11.396;2023-06-14T09:18:42;4.80;;;3.70;;
73296;SDS011;61524;50.938;11.396;2023-06-14T09:21:09;7.93;;;4.25;;
73296;SDS011;61524;50.938;11.396;2023-06-14T09:23:36;5.88;;;3.70;;
73296;SDS011;61524;50.938;11.396;2023-06-14T09:26:07;6.20;;;3.60;;
73296;SDS011;61524;50.938;11.396;2023-06-14T09:28:52;4.38;;;3.10;;
73296;SDS011;61524;50.938;11.396;2023-06-14T09:31:19;7.03;;;3.10;;
73296;SDS011;61524;50.938;11.396;2023-06-14T09:33:45;5.32;;;3.20;;
73296;SDS011;61524;50.938;11.396;2023-06-14T09:39:00;4.72;;;3.22;;
73296;SDS011;61524;50.938;11.396;2023-06-14T09:41:35;7.55;;;4.95;;
73296;SDS011;61524;50.938;11.396;2023-06-14T09:44:02;4.65;;;3.20;;
73296;SDS011;61524;50.938;11.396;2023-06-14T09:46:29;5.97;;;2.83;;
73296;SDS011;61524;50.938;11.396;2023-06-14T09:51:24;6.82;;;4.00;;
73296;SDS011;61524;50.938;11.396;2023-06-14T09:53:51;5.30;;;3.35;;
73296;SDS011;61524;50.938;11.396;2023-06-14T09:56:19;5.15;;;3.45;;
73296;SDS011;61524;50.938;11.396;2023-06-14T09:58:53;5.85;;;3.28;;
73296;SDS011;61524;50.938;11.396;2023-06-14T10:01:21;4.75;;;3.10;;
73296;SDS011;61524;50.938;11.396;2023-06-14T10:03:50;7.97;;;3.70;;
73296;SDS011;61524;50.938;11.396;2023-06-14T10:06:26;5.43;;;3.30;;
73296;SDS011;61524;50.938;11.396;2023-06-14T10:08:56;6.88;;;3.60;;
73296;SDS011;61524;50.938;11.396;2023-06-14T10:11:22;5.10;;;3.17;;
73296;SDS011;61524;50.938;11.396;2023-06-14T10:13:50;5.57;;;3.03;;
73296;SDS011;61524;50.938;11.396;2023-06-14T10:16:38;5.45;;;3.10;;
73296;SDS011;61524;50.938;11.396;2023-06-14T10:22:04;5.00;;;2.92;;
73296;SDS011;61524;50.938;11.396;2023-06-14T10:24:40;4.60;;;2.75;;
73296;SDS011;61524;50.938;11.396;2023-06-14T10:27:08;4.72;;;3.03;;
73296;SDS011;61524;50.938;11.396;2023-06-14T10:30:21;5.22;;;3.35;;
73296;SDS011;61524;50.938;11.396;2023-06-14T10:32:22;5.78;;;3.38;;
73296;SDS011;61524;50.938;11.396;2023-06-14T10:34:55;5.45;;;3.00;;
73296;SDS011;61524;50.938;11.396;2023-06-14T10:37:22;4.65;;;2.78;;
73296;SDS011;61524;50.938;11.396;2023-06-14T10:39:49;4.97;;;3.33;;
73296;SDS011;61524;50.938;11.396;2023-06-14T10:42:15;5.55;;;3.00;;
73296;SDS011;61524;50.938;11.396;2023-06-14T10:47:09;6.57;;;3.00;;
73296;SDS011;61524;50.938;11.396;2023-06-14T10:49:36;5.43;;;3.30;;
73296;SDS011;61524;50.938;11.396;2023-06-14T10:52:10;5.50;;;3.25;;
73296;SDS011;61524;50.938;11.396;2023-06-14T11:00:07;9.95;;;3.25;;
73296;SDS011;61524;50.938;11.396;2023-06-14T11:05:26;5.22;;;3.17;;
73296;SDS011;61524;50.938;11.396;2023-06-14T11:10:58;4.85;;;3.45;;
73296;SDS011;61524;50.938;11.396;2023-06-14T11:13:25;5.63;;;3.33;;
73296;SDS011;61524;50.938;11.396;2023-06-14T11:15:51;5.75;;;2.90;;
73296;SDS011;61524;50.938;11.396;2023-06-14T11:18:22;6.35;;;3.33;;
73296;SDS011;61524;50.938;11.396;2023-06-14T11:20:52;6.60;;;3.15;;
73296;SDS011;61524;50.938;11.396;2023-06-14T11:23:18;4.60;;;3.22;;
73296;SDS011;61524;50.938;11.396;2023-06-14T11:25:49;4.13;;;2.60;;
73296;SDS011;61524;50.938;11.396;2023-06-14T11:28:16;5.30;;;2.58;;
73296;SDS011;61524;50.938;11.396;2023-06-14T11:30:41;5.53;;;2.63;;
73296;SDS011;61524;50.938;11.396;2023-06-14T11:33:09;4.50;;;3.15;;
73296;SDS011;61524;50.938;11.396;2023-06-14T11:35:35;5.07;;;3.25;;
73296;SDS011;61524;50.938;11.396;2023-06-14T11:38:01;4.85;;;3.20;;
73296;SDS011;61524;50.938;11.396;2023-06-14T11:40:27;4.88;;;3.38;;
73296;SDS011;61524;50.938;11.396;2023-06-14T11:42:58;3.85;;;2.40;;
73296;SDS011;61524;50.938;11.396;2023-06-14T11:45:25;4.47;;;2.83;;
73296;SDS011;61524;50.938;11.396;2023-06-14T11:47:53;5.78;;;3.05;;
73296;SDS011;61524;50.938;11.396;2023-06-14T11:50:21;3.83;;;2.50;;
73296;SDS011;61524;50.938;11.396;2023-06-14T11:52:56;4.43;;;2.78;;
73296;SDS011;61524;50.938;11.396;2023-06-14T11:55:24;5.65;;;3.20;;
73296;SDS011;61524;50.938;11.396;2023-06-14T11:57:51;4.97;;;3.00;;
73296;SDS011;61524;50.938;11.396;2023-06-14T12:00:18;4.75;;;2.42;;
73296;SDS011;61524;50.938;11.396;2023-06-14T12:02:53;4.18;;;2.67;;
73296;SDS011;61524;50.938;11.396;2023-06-14T12:05:22;4.50;;;2.70;;
73296;SDS011;61524;50.938;11.396;2023-06-14T12:07:48;4.43;;;3.05;;
73296;SDS011;61524;50.938;11.396;2023-06-14T12:10:15;6.68;;;2.92;;
73296;SDS011;61524;50.938;11.396;2023-06-14T12:12:41;4.45;;;3.03;;
73296;SDS011;61524;50.938;11.396;2023-06-14T12:15:07;8.25;;;5.22;;
73296;SDS011;61524;50.938;11.396;2023-06-14T12:17:36;14.70;;;10.13;;
73296;SDS011;61524;50.938;11.396;2023-06-14T12:20:10;4.82;;;3.10;;
73296;SDS011;61524;50.938;11.396;2023-06-14T12:22:39;5.28;;;3.25;;
73296;SDS011;61524;50.938;11.396;2023-06-14T12:25:22;4.78;;;2.80;;
73296;SDS011;61524;50.938;11.396;2023-06-14T12:27:53;4.35;;;3.08;;
73296;SDS011;61524;50.938;11.396;2023-06-14T12:30:20;4.57;;;2.30;;
73296;SDS011;61524;50.938;11.396;2023-06-14T12:32:45;3.90;;;2.80;;
73296;SDS011;61524;50.938;11.396;2023-06-14T12:35:10;7.07;;;3.20;;
73296;SDS011;61524;50.938;11.396;2023-06-14T12:37:36;5.53;;;2.97;;
73296;SDS011;61524;50.938;11.396;2023-06-14T12:40:01;5.45;;;2.63;;
73296;SDS011;61524;50.938;11.396;2023-06-14T12:42:31;4.90;;;2.78;;
73296;SDS011;61524;50.938;11.396;2023-06-14T12:44:57;3.80;;;2.72;;
73296;SDS011;61524;50.938;11.396;2023-06-14T12:47:23;3.95;;;2.47;;
73296;SDS011;61524;50.938;11.396;2023-06-14T12:49:48;5.88;;;2.75;;
73296;SDS011;61524;50.938;11.396;2023-06-14T12:52:14;3.92;;;2.90;;
73296;SDS011;61524;50.938;11.396;2023-06-14T12:54:39;5.72;;;2.80;;
73296;SDS011;61524;50.938;11.396;2023-06-14T12:57:06;4.00;;;2.72;;
73296;SDS011;61524;50.938;11.396;2023-06-14T12:59:32;5.20;;;2.92;;
73296;SDS011;61524;50.938;11.396;2023-06-14T13:01:58;4.43;;;2.63;;
73296;SDS011;61524;50.938;11.396;2023-06-14T13:04:40;4.35;;;2.80;;
73296;SDS011;61524;50.938;11.396;2023-06-14T13:07:05;4.70;;;2.60;;
73296;SDS011;61524;50.938;11.396;2023-06-14T13:09:31;3.92;;;2.60;;
73296;SDS011;61524;50.938;11.396;2023-06-14T13:11:56;3.90;;;2.60;;
73296;SDS011;61524;50.938;11.396;2023-06-14T13:14:21;4.90;;;2.60;;
73296;SDS011;61524;50.938;11.396;2023-06-14T13:16:47;3.83;;;2.47;;
73296;SDS011;61524;50.938;11.396;2023-06-14T13:19:13;5.63;;;3.05;;
73296;SDS011;61524;50.938;11.396;2023-06-14T13:21:38;4.18;;;2.58;;
73296;SDS011;61524;50.938;11.396;2023-06-14T13:24:04;4.65;;;3.58;;
73296;SDS011;61524;50.938;11.396;2023-06-14T13:26:30;5.30;;;2.17;;
73296;SDS011;61524;50.938;11.396;2023-06-14T13:28:55;5.40;;;2.50;;
73296;SDS011;61524;50.938;11.396;2023-06-14T13:31:21;5.20;;;2.42;;
73296;SDS011;61524;50.938;11.396;2023-06-14T13:33:46;4.32;;;2.42;;
73296;SDS011;61524;50.938;11.396;2023-06-14T13:36:11;3.63;;;2.65;;
73296;SDS011;61524;50.938;11.396;2023-06-14T13:38:37;5.30;;;2.80;;
73296;SDS011;61524;50.938;11.396;2023-06-14T13:41:02;4.10;;;2.28;;
73296;SDS011;61524;50.938;11.396;2023-06-14T13:43:28;4.85;;;2.85;;
73296;SDS011;61524;50.938;11.396;2023-06-14T13:45:53;4.43;;;2.97;;
73296;SDS011;61524;50.938;11.396;2023-06-14T13:48:19;10.88;;;2.88;;
73296;SDS011;61524;50.938;11.396;2023-06-14T13:50:44;5.57;;;2.38;;
73296;SDS011;61524;50.938;11.396;2023-06-14T13:53:11;4.00;;;2.20;;
73296;SDS011;61524;50.938;11.396;2023-06-14T13:55:36;4.07;;;2.33;;
73296;SDS011;61524;50.938;11.396;2023-06-14T13:58:02;3.72;;;2.05;;
73296;SDS011;61524;50.938;11.396;2023-06-14T14:00:27;4.93;;;2.45;;
73296;SDS011;61524;50.938;11.396;2023-06-14T14:02:53;4.60;;;2.08;;
73296;SDS011;61524;50.938;11.396;2023-06-14T14:05:19;3.72;;;2.10;;
73296;SDS011;61524;50.938;11.396;2023-06-14T14:07:45;4.05;;;2.10;;
73296;SDS011;61524;50.938;11.396;2023-06-14T14:10:11;3.63;;;2.20;;
73296;SDS011;61524;50.938;11.396;2023-06-14T14:12:38;3.55;;;2.20;;
73296;SDS011;61524;50.938;11.396;2023-06-14T14:15:05;3.65;;;2.45;;
73296;SDS011;61524;50.938;11.396;2023-06-14T14:17:37;3.65;;;2.35;;
73296;SDS011;61524;50.938;11.396;2023-06-14T14:20:03;3.42;;;2.03;;
73296;SDS011;61524;50.938;11.396;2023-06-14T14:22:28;7.38;;;2.75;;
73296;SDS011;61524;50.938;11.396;2023-06-14T14:24:54;5.57;;;2.80;;
73296;SDS011;61524;50.938;11.396;2023-06-14T14:27:19;3.58;;;2.05;;
73296;SDS011;61524;50.938;11.396;2023-06-14T14:29:45;3.08;;;1.88;;
73296;SDS011;61524;50.938;11.396;2023-06-14T14:32:10;4.97;;;2.13;;
73296;SDS011;61524;50.938;11.396;2023-06-14T14:34:38;3.55;;;2.22;;
73296;SDS011;61524;50.938;11.396;2023-06-14T14:37:04;3.47;;;1.85;;
73296;SDS011;61524;50.938;11.396;2023-06-14T14:39:29;4.72;;;1.95;;
73296;SDS011;61524;50.938;11.396;2023-06-14T14:41:55;4.68;;;2.60;;
73296;SDS011;61524;50.938;11.396;2023-06-14T14:44:21;3.80;;;2.10;;
73296;SDS011;61524;50.938;11.396;2023-06-14T14:46:46;3.88;;;1.88;;
73296;SDS011;61524;50.938;11.396;2023-06-14T14:49:12;3.55;;;1.98;;
73296;SDS011;61524;50.938;11.396;2023-06-14T14:51:37;2.83;;;1.40;;
73296;SDS011;61524;50.938;11.396;2023-06-14T14:54:05;3.28;;;1.98;;
73296;SDS011;61524;50.938;11.396;2023-06-14T14:56:31;8.00;;;1.80;;
73296;SDS011;61524;50.938;11.396;2023-06-14T14:58:56;4.00;;;2.00;;
73296;SDS011;61524;50.938;11.396;2023-06-14T15:01:22;2.90;;;1.70;;
73296;SDS011;61524;50.938;11.396;2023-06-14T15:03:47;3.95;;;1.90;;
73296;SDS011;61524;50.938;11.396;2023-06-14T15:06:13;3.55;;;1.77;;